sensor_id;sensor_type;location;lat;lon;timestamp;P1;durP1;ratioP1;P2;durP2;ratioP2
49177;SDS011;35016;55.674;37.468;2023-08-08T00:00:06;8.07;;;3.45;;
49177;SDS011;35016;55.674;37.468;2023-08-08T00:02:35;7.70;;;3.22;;
49177;SDS011;35016;55.674;37.468;2023-08-08T00:05:02;8.32;;;3.05;;
49177;SDS011;35016;55.674;37.468;2023-08-08T00:07:32;7.72;;;3.35;;
49177;SDS011;35016;55.674;37.468;2023-08-08T00:10:00;6.93;;;2.83;;
49177;SDS011;35016;55.674;37.468;2023-08-08T00:12:28;8.25;;;3.38;;
49177;SDS011;35016;55.674;37.468;2023-08-08T00:14:55;7.07;;;3.15;;
49177;SDS011;35016;55.674;37.468;2023-08-08T00:17:22;5.60;;;2.47;;
49177;SDS011;35016;55.674;37.468;2023-08-08T00:19:49;9.00;;;2.95;;
49177;SDS011;35016;55.674;37.468;2023-08-08T00:22:16;10.02;;;2.95;;
49177;SDS011;35016;55.674;37.468;2023-08-08T00:24:43;6.88;;;2.78;;
49177;SDS011;35016;55.674;37.468;2023-08-08T00:27:10;8.15;;;2.80;;
49177;SDS011;35016;55.674;37.468;2023-08-08T00:29:37;8.90;;;3.55;;
49177;SDS011;35016;55.674;37.468;2023-08-08T00:32:05;7.38;;;3.00;;
49177;SDS011;35016;55.674;37.468;2023-08-08T00:34:32;8.38;;;3.55;;
49177;SDS011;35016;55.674;37.468;2023-08-08T00:36:59;7.82;;;3.38;;
49177;SDS011;35016;55.674;37.468;2023-08-08T00:39:26;7.20;;;3.38;;
49177;SDS011;35016;55.674;37.468;2023-08-08T00:41:53;6.28;;;2.50;;
49177;SDS011;35016;55.674;37.468;2023-08-08T00:44:20;6.78;;;2.67;;
49177;SDS011;35016;55.674;37.468;2023-08-08T00:46:47;8.95;;;3.42;;
49177;SDS011;35016;55.674;37.468;2023-08-08T00:49:14;8.07;;;3.63;;
49177;SDS011;35016;55.674;37.468;2023-08-08T00:51:41;6.95;;;3.20;;
49177;SDS011;35016;55.674;37.468;2023-08-08T00:54:09;8.35;;;3.17;;
49177;SDS011;35016;55.674;37.468;2023-08-08T00:56:37;9.40;;;2.88;;
49177;SDS011;35016;55.674;37.468;2023-08-08T00:59:04;7.40;;;2.92;;
49177;SDS011;35016;55.674;37.468;2023-08-08T01:01:33;8.02;;;3.55;;
49177;SDS011;35016;55.674;37.468;2023-08-08T01:03:59;9.73;;;3.72;;
49177;SDS011;35016;55.674;37.468;2023-08-08T01:09:13;9.55;;;3.78;;
49177;SDS011;35016;55.674;37.468;2023-08-08T01:12:02;7.43;;;2.60;;
49177;SDS011;35016;55.674;37.468;2023-08-08T01:14:32;8.55;;;3.03;;
49177;SDS011;35016;55.674;37.468;2023-08-08T01:17:02;7.50;;;3.05;;
49177;SDS011;35016;55.674;37.468;2023-08-08T01:19:30;8.35;;;3.65;;
49177;SDS011;35016;55.674;37.468;2023-08-08T01:22:04;8.75;;;3.58;;
49177;SDS011;35016;55.674;37.468;2023-08-08T01:24:35;8.07;;;3.42;;
49177;SDS011;35016;55.674;37.468;2023-08-08T01:27:04;8.73;;;4.00;;
49177;SDS011;35016;55.674;37.468;2023-08-08T01:29:32;8.68;;;4.13;;
49177;SDS011;35016;55.674;37.468;2023-08-08T01:31:59;8.18;;;3.95;;
49177;SDS011;35016;55.674;37.468;2023-08-08T01:34:27;9.40;;;3.75;;
49177;SDS011;35016;55.674;37.468;2023-08-08T01:36:58;7.38;;;3.17;;
49177;SDS011;35016;55.674;37.468;2023-08-08T01:39:30;7.88;;;3.78;;
49177;SDS011;35016;55.674;37.468;2023-08-08T01:41:59;8.35;;;3.60;;
49177;SDS011;35016;55.674;37.468;2023-08-08T01:44:27;8.63;;;4.15;;
49177;SDS011;35016;55.674;37.468;2023-08-08T01:46:55;9.95;;;4.43;;
49177;SDS011;35016;55.674;37.468;2023-08-08T01:49:23;8.60;;;4.28;;
49177;SDS011;35016;55.674;37.468;2023-08-08T01:51:50;7.57;;;3.20;;
49177;SDS011;35016;55.674;37.468;2023-08-08T01:54:19;7.70;;;3.80;;
49177;SDS011;35016;55.674;37.468;2023-08-08T01:56:46;8.35;;;3.95;;
49177;SDS011;35016;55.674;37.468;2023-08-08T01:59:13;8.32;;;3.47;;
49177;SDS011;35016;55.674;37.468;2023-08-08T02:01:42;10.98;;;4.47;;
49177;SDS011;35016;55.674;37.468;2023-08-08T02:04:09;8.73;;;4.32;;
49177;SDS011;35016;55.674;37.468;2023-08-08T02:06:36;10.32;;;4.07;;
49177;SDS011;35016;55.674;37.468;2023-08-08T02:09:03;7.65;;;3.80;;
49177;SDS011;35016;55.674;37.468;2023-08-08T02:11:31;7.75;;;3.88;;
49177;SDS011;35016;55.674;37.468;2023-08-08T02:13:58;9.02;;;4.13;;
49177;SDS011;35016;55.674;37.468;2023-08-08T02:16:25;8.23;;;3.60;;
49177;SDS011;35016;55.674;37.468;2023-08-08T02:18:52;9.23;;;4.15;;
49177;SDS011;35016;55.674;37.468;2023-08-08T02:21:19;11.70;;;4.30;;
49177;SDS011;35016;55.674;37.468;2023-08-08T02:23:48;8.30;;;4.55;;
49177;SDS011;35016;55.674;37.468;2023-08-08T02:26:15;9.98;;;4.18;;
49177;SDS011;35016;55.674;37.468;2023-08-08T02:28:42;9.30;;;4.50;;
49177;SDS011;35016;55.674;37.468;2023-08-08T02:31:09;9.15;;;3.63;;
49177;SDS011;35016;55.674;37.468;2023-08-08T02:33:37;8.48;;;4.18;;
49177;SDS011;35016;55.674;37.468;2023-08-08T02:36:04;11.65;;;4.82;;
49177;SDS011;35016;55.674;37.468;2023-08-08T02:38:31;8.10;;;3.85;;
49177;SDS011;35016;55.674;37.468;2023-08-08T02:40:58;8.40;;;4.38;;
49177;SDS011;35016;55.674;37.468;2023-08-08T02:43:25;8.25;;;3.95;;
49177;SDS011;35016;55.674;37.468;2023-08-08T02:45:52;9.68;;;4.30;;
49177;SDS011;35016;55.674;37.468;2023-08-08T02:48:19;8.15;;;4.05;;
49177;SDS011;35016;55.674;37.468;2023-08-08T02:50:46;10.05;;;4.40;;
49177;SDS011;35016;55.674;37.468;2023-08-08T02:53:14;16.13;;;4.38;;
49177;SDS011;35016;55.674;37.468;2023-08-08T02:55:46;12.25;;;4.78;;
49177;SDS011;35016;55.674;37.468;2023-08-08T02:58:13;7.10;;;3.88;;
49177;SDS011;35016;55.674;37.468;2023-08-08T03:00:40;8.50;;;4.15;;
49177;SDS011;35016;55.674;37.468;2023-08-08T03:03:11;8.60;;;4.40;;
49177;SDS011;35016;55.674;37.468;2023-08-08T03:05:40;9.70;;;4.35;;
49177;SDS011;35016;55.674;37.468;2023-08-08T03:08:07;7.88;;;3.67;;
49177;SDS011;35016;55.674;37.468;2023-08-08T03:10:34;8.88;;;4.13;;
49177;SDS011;35016;55.674;37.468;2023-08-08T03:13:01;8.00;;;3.75;;
49177;SDS011;35016;55.674;37.468;2023-08-08T03:15:28;10.05;;;3.83;;
49177;SDS011;35016;55.674;37.468;2023-08-08T03:17:56;10.02;;;4.00;;
49177;SDS011;35016;55.674;37.468;2023-08-08T03:20:24;8.75;;;3.53;;
49177;SDS011;35016;55.674;37.468;2023-08-08T03:22:51;7.47;;;3.95;;
49177;SDS011;35016;55.674;37.468;2023-08-08T03:25:18;10.30;;;4.25;;
49177;SDS011;35016;55.674;37.468;2023-08-08T03:27:46;8.30;;;4.30;;
49177;SDS011;35016;55.674;37.468;2023-08-08T03:30:14;8.15;;;4.00;;
49177;SDS011;35016;55.674;37.468;2023-08-08T03:32:43;7.95;;;4.20;;
49177;SDS011;35016;55.674;37.468;2023-08-08T03:35:10;11.05;;;3.58;;
49177;SDS011;35016;55.674;37.468;2023-08-08T03:37:40;8.70;;;4.13;;
49177;SDS011;35016;55.674;37.468;2023-08-08T03:40:08;7.30;;;3.17;;
49177;SDS011;35016;55.674;37.468;2023-08-08T03:42:35;9.65;;;3.15;;
49177;SDS011;35016;55.674;37.468;2023-08-08T03:45:03;7.40;;;3.20;;
49177;SDS011;35016;55.674;37.468;2023-08-08T03:47:30;8.82;;;3.25;;
49177;SDS011;35016;55.674;37.468;2023-08-08T03:49:57;7.85;;;3.50;;
49177;SDS011;35016;55.674;37.468;2023-08-08T03:52:25;8.35;;;4.00;;
49177;SDS011;35016;55.674;37.468;2023-08-08T03:54:53;9.20;;;4.20;;
49177;SDS011;35016;55.674;37.468;2023-08-08T03:57:21;8.23;;;3.83;;
49177;SDS011;35016;55.674;37.468;2023-08-08T03:59:48;10.38;;;4.15;;
49177;SDS011;35016;55.674;37.468;2023-08-08T04:02:15;10.00;;;4.22;;
49177;SDS011;35016;55.674;37.468;2023-08-08T04:04:42;9.68;;;4.72;;
49177;SDS011;35016;55.674;37.468;2023-08-08T04:07:09;9.05;;;3.60;;
49177;SDS011;35016;55.674;37.468;2023-08-08T04:09:36;7.63;;;3.90;;
49177;SDS011;35016;55.674;37.468;2023-08-08T04:12:04;9.70;;;4.22;;
49177;SDS011;35016;55.674;37.468;2023-08-08T04:14:32;7.05;;;3.55;;
49177;SDS011;35016;55.674;37.468;2023-08-08T04:16:59;12.18;;;5.00;;
49177;SDS011;35016;55.674;37.468;2023-08-08T04:19:26;9.32;;;5.10;;
49177;SDS011;35016;55.674;37.468;2023-08-08T04:21:53;11.48;;;3.63;;
49177;SDS011;35016;55.674;37.468;2023-08-08T04:24:20;8.25;;;3.72;;
49177;SDS011;35016;55.674;37.468;2023-08-08T04:26:47;8.30;;;3.60;;
49177;SDS011;35016;55.674;37.468;2023-08-08T04:29:14;9.23;;;4.80;;
49177;SDS011;35016;55.674;37.468;2023-08-08T04:31:41;8.48;;;4.15;;
49177;SDS011;35016;55.674;37.468;2023-08-08T04:34:09;8.65;;;4.97;;
49177;SDS011;35016;55.674;37.468;2023-08-08T04:36:36;8.43;;;3.85;;
49177;SDS011;35016;55.674;37.468;2023-08-08T04:39:03;8.90;;;4.05;;
49177;SDS011;35016;55.674;37.468;2023-08-08T04:41:30;7.93;;;3.75;;
49177;SDS011;35016;55.674;37.468;2023-08-08T04:43:57;8.52;;;3.92;;
49177;SDS011;35016;55.674;37.468;2023-08-08T04:46:24;9.60;;;4.53;;
49177;SDS011;35016;55.674;37.468;2023-08-08T04:48:51;10.35;;;3.90;;
49177;SDS011;35016;55.674;37.468;2023-08-08T04:51:18;10.35;;;4.15;;
49177;SDS011;35016;55.674;37.468;2023-08-08T04:53:45;8.10;;;3.95;;
49177;SDS011;35016;55.674;37.468;2023-08-08T04:56:12;8.10;;;3.83;;
49177;SDS011;35016;55.674;37.468;2023-08-08T04:58:40;8.90;;;4.28;;
49177;SDS011;35016;55.674;37.468;2023-08-08T05:01:07;9.57;;;4.40;;
49177;SDS011;35016;55.674;37.468;2023-08-08T05:03:38;7.95;;;3.47;;
49177;SDS011;35016;55.674;37.468;2023-08-08T05:06:05;8.68;;;3.72;;
49177;SDS011;35016;55.674;37.468;2023-08-08T05:08:32;9.32;;;3.92;;
49177;SDS011;35016;55.674;37.468;2023-08-08T05:10:59;7.75;;;2.70;;
49177;SDS011;35016;55.674;37.468;2023-08-08T05:13:26;9.48;;;3.67;;
49177;SDS011;35016;55.674;37.468;2023-08-08T05:15:53;10.32;;;3.63;;
49177;SDS011;35016;55.674;37.468;2023-08-08T05:18:20;8.45;;;3.60;;
49177;SDS011;35016;55.674;37.468;2023-08-08T05:20:47;7.72;;;4.10;;
49177;SDS011;35016;55.674;37.468;2023-08-08T05:23:14;12.32;;;4.30;;
49177;SDS011;35016;55.674;37.468;2023-08-08T05:25:42;7.88;;;3.25;;
49177;SDS011;35016;55.674;37.468;2023-08-08T05:28:09;8.65;;;3.97;;
49177;SDS011;35016;55.674;37.468;2023-08-08T05:30:36;11.82;;;4.75;;
49177;SDS011;35016;55.674;37.468;2023-08-08T05:33:03;10.48;;;4.85;;
49177;SDS011;35016;55.674;37.468;2023-08-08T05:35:30;7.93;;;3.85;;
49177;SDS011;35016;55.674;37.468;2023-08-08T05:37:57;8.52;;;4.18;;
49177;SDS011;35016;55.674;37.468;2023-08-08T05:40:24;12.05;;;5.60;;
49177;SDS011;35016;55.674;37.468;2023-08-08T05:42:51;10.15;;;4.93;;
49177;SDS011;35016;55.674;37.468;2023-08-08T05:45:18;8.57;;;4.25;;
49177;SDS011;35016;55.674;37.468;2023-08-08T05:47:45;10.13;;;4.93;;
49177;SDS011;35016;55.674;37.468;2023-08-08T05:50:12;9.25;;;4.22;;
49177;SDS011;35016;55.674;37.468;2023-08-08T05:52:40;8.38;;;4.38;;
49177;SDS011;35016;55.674;37.468;2023-08-08T05:55:07;8.52;;;3.58;;
49177;SDS011;35016;55.674;37.468;2023-08-08T05:57:34;8.05;;;3.67;;
49177;SDS011;35016;55.674;37.468;2023-08-08T06:00:01;8.20;;;4.10;;
49177;SDS011;35016;55.674;37.468;2023-08-08T06:02:38;12.65;;;5.85;;
49177;SDS011;35016;55.674;37.468;2023-08-08T06:05:05;8.77;;;4.43;;
49177;SDS011;35016;55.674;37.468;2023-08-08T06:07:32;9.48;;;4.57;;
49177;SDS011;35016;55.674;37.468;2023-08-08T06:10:00;8.80;;;4.93;;
49177;SDS011;35016;55.674;37.468;2023-08-08T06:12:28;8.13;;;3.97;;
49177;SDS011;35016;55.674;37.468;2023-08-08T06:14:55;9.45;;;5.28;;
49177;SDS011;35016;55.674;37.468;2023-08-08T06:17:22;8.95;;;4.45;;
49177;SDS011;35016;55.674;37.468;2023-08-08T06:19:50;8.15;;;4.07;;
49177;SDS011;35016;55.674;37.468;2023-08-08T06:22:17;7.75;;;4.00;;
49177;SDS011;35016;55.674;37.468;2023-08-08T06:24:44;7.70;;;3.85;;
49177;SDS011;35016;55.674;37.468;2023-08-08T06:27:12;9.88;;;4.63;;
49177;SDS011;35016;55.674;37.468;2023-08-08T06:29:40;10.02;;;5.05;;
49177;SDS011;35016;55.674;37.468;2023-08-08T06:32:07;9.80;;;4.65;;
49177;SDS011;35016;55.674;37.468;2023-08-08T06:34:34;10.73;;;5.35;;
49177;SDS011;35016;55.674;37.468;2023-08-08T06:37:01;10.93;;;4.85;;
49177;SDS011;35016;55.674;37.468;2023-08-08T06:39:28;9.65;;;4.93;;
49177;SDS011;35016;55.674;37.468;2023-08-08T06:41:56;9.15;;;4.93;;
49177;SDS011;35016;55.674;37.468;2023-08-08T06:44:40;8.65;;;4.63;;
49177;SDS011;35016;55.674;37.468;2023-08-08T06:47:08;8.20;;;4.13;;
49177;SDS011;35016;55.674;37.468;2023-08-08T06:49:36;8.35;;;4.32;;
49177;SDS011;35016;55.674;37.468;2023-08-08T06:52:04;9.65;;;4.50;;
49177;SDS011;35016;55.674;37.468;2023-08-08T06:54:32;9.55;;;5.15;;
49177;SDS011;35016;55.674;37.468;2023-08-08T06:57:00;9.38;;;5.05;;
49177;SDS011;35016;55.674;37.468;2023-08-08T06:59:29;9.63;;;5.38;;
49177;SDS011;35016;55.674;37.468;2023-08-08T07:01:56;11.77;;;4.88;;
49177;SDS011;35016;55.674;37.468;2023-08-08T07:04:23;10.30;;;4.97;;
49177;SDS011;35016;55.674;37.468;2023-08-08T07:06:50;10.77;;;5.45;;
49177;SDS011;35016;55.674;37.468;2023-08-08T07:09:17;8.23;;;5.07;;
49177;SDS011;35016;55.674;37.468;2023-08-08T07:11:44;10.10;;;5.30;;
49177;SDS011;35016;55.674;37.468;2023-08-08T07:14:12;11.82;;;4.88;;
49177;SDS011;35016;55.674;37.468;2023-08-08T07:16:39;10.57;;;5.20;;
49177;SDS011;35016;55.674;37.468;2023-08-08T07:19:06;9.55;;;4.75;;
49177;SDS011;35016;55.674;37.468;2023-08-08T07:21:33;9.25;;;4.72;;
49177;SDS011;35016;55.674;37.468;2023-08-08T07:24:00;9.60;;;5.05;;
49177;SDS011;35016;55.674;37.468;2023-08-08T07:26:29;12.55;;;5.80;;
49177;SDS011;35016;55.674;37.468;2023-08-08T07:28:56;14.48;;;6.90;;
49177;SDS011;35016;55.674;37.468;2023-08-08T07:31:24;12.07;;;4.90;;
49177;SDS011;35016;55.674;37.468;2023-08-08T07:33:51;13.18;;;5.72;;
49177;SDS011;35016;55.674;37.468;2023-08-08T07:36:18;10.77;;;5.45;;
49177;SDS011;35016;55.674;37.468;2023-08-08T07:38:45;11.57;;;6.20;;
49177;SDS011;35016;55.674;37.468;2023-08-08T07:41:12;9.55;;;6.00;;
49177;SDS011;35016;55.674;37.468;2023-08-08T07:43:39;9.77;;;5.63;;
49177;SDS011;35016;55.674;37.468;2023-08-08T07:46:06;11.18;;;6.30;;
49177;SDS011;35016;55.674;37.468;2023-08-08T07:48:33;9.52;;;5.47;;
49177;SDS011;35016;55.674;37.468;2023-08-08T07:51:00;10.75;;;5.80;;
49177;SDS011;35016;55.674;37.468;2023-08-08T07:53:27;9.05;;;5.10;;
49177;SDS011;35016;55.674;37.468;2023-08-08T07:55:55;10.82;;;4.93;;
49177;SDS011;35016;55.674;37.468;2023-08-08T07:58:22;10.65;;;6.50;;
49177;SDS011;35016;55.674;37.468;2023-08-08T08:00:52;12.32;;;6.50;;
49177;SDS011;35016;55.674;37.468;2023-08-08T08:03:20;10.40;;;6.00;;
49177;SDS011;35016;55.674;37.468;2023-08-08T08:05:48;9.88;;;5.78;;
49177;SDS011;35016;55.674;37.468;2023-08-08T08:08:15;11.20;;;6.78;;
49177;SDS011;35016;55.674;37.468;2023-08-08T08:10:42;12.80;;;7.38;;
49177;SDS011;35016;55.674;37.468;2023-08-08T08:13:09;11.90;;;5.78;;
49177;SDS011;35016;55.674;37.468;2023-08-08T08:15:38;11.38;;;5.40;;
49177;SDS011;35016;55.674;37.468;2023-08-08T08:18:05;15.25;;;7.22;;
49177;SDS011;35016;55.674;37.468;2023-08-08T08:20:32;10.85;;;6.75;;
49177;SDS011;35016;55.674;37.468;2023-08-08T08:23:00;9.70;;;5.75;;
49177;SDS011;35016;55.674;37.468;2023-08-08T08:25:27;12.38;;;6.30;;
49177;SDS011;35016;55.674;37.468;2023-08-08T08:27:54;12.90;;;5.80;;
49177;SDS011;35016;55.674;37.468;2023-08-08T08:30:21;9.75;;;5.70;;
49177;SDS011;35016;55.674;37.468;2023-08-08T08:32:50;11.10;;;6.13;;
49177;SDS011;35016;55.674;37.468;2023-08-08T08:35:18;10.73;;;6.25;;
49177;SDS011;35016;55.674;37.468;2023-08-08T08:37:46;10.90;;;6.50;;
49177;SDS011;35016;55.674;37.468;2023-08-08T08:40:13;12.15;;;7.20;;
49177;SDS011;35016;55.674;37.468;2023-08-08T08:42:40;12.40;;;6.63;;
49177;SDS011;35016;55.674;37.468;2023-08-08T08:45:08;11.32;;;6.80;;
49177;SDS011;35016;55.674;37.468;2023-08-08T08:47:36;13.73;;;6.93;;
49177;SDS011;35016;55.674;37.468;2023-08-08T08:50:06;11.13;;;7.63;;
49177;SDS011;35016;55.674;37.468;2023-08-08T08:52:33;11.38;;;6.10;;
49177;SDS011;35016;55.674;37.468;2023-08-08T08:55:01;11.40;;;6.72;;
49177;SDS011;35016;55.674;37.468;2023-08-08T08:57:29;10.10;;;7.22;;
49177;SDS011;35016;55.674;37.468;2023-08-08T08:59:56;14.45;;;8.45;;
49177;SDS011;35016;55.674;37.468;2023-08-08T09:02:23;11.50;;;6.10;;
49177;SDS011;35016;55.674;37.468;2023-08-08T09:04:50;9.75;;;6.78;;
49177;SDS011;35016;55.674;37.468;2023-08-08T09:07:18;11.32;;;6.88;;
49177;SDS011;35016;55.674;37.468;2023-08-08T09:09:49;11.00;;;5.65;;
49177;SDS011;35016;55.674;37.468;2023-08-08T09:12:16;11.40;;;8.05;;
49177;SDS011;35016;55.674;37.468;2023-08-08T09:14:45;12.40;;;7.15;;
49177;SDS011;35016;55.674;37.468;2023-08-08T09:17:12;11.43;;;7.20;;
49177;SDS011;35016;55.674;37.468;2023-08-08T09:19:43;10.30;;;6.43;;
49177;SDS011;35016;55.674;37.468;2023-08-08T09:22:13;10.48;;;6.70;;
49177;SDS011;35016;55.674;37.468;2023-08-08T09:24:40;13.40;;;7.80;;
49177;SDS011;35016;55.674;37.468;2023-08-08T09:27:08;10.48;;;6.80;;
49177;SDS011;35016;55.674;37.468;2023-08-08T09:29:37;10.68;;;6.43;;
49177;SDS011;35016;55.674;37.468;2023-08-08T09:32:05;10.88;;;7.40;;
49177;SDS011;35016;55.674;37.468;2023-08-08T09:34:32;12.00;;;7.40;;
49177;SDS011;35016;55.674;37.468;2023-08-08T09:37:00;14.52;;;7.47;;
49177;SDS011;35016;55.674;37.468;2023-08-08T09:39:28;12.90;;;7.95;;
49177;SDS011;35016;55.674;37.468;2023-08-08T09:41:56;11.20;;;6.97;;
49177;SDS011;35016;55.674;37.468;2023-08-08T09:44:23;22.13;;;8.05;;
49177;SDS011;35016;55.674;37.468;2023-08-08T09:46:53;11.65;;;6.15;;
49177;SDS011;35016;55.674;37.468;2023-08-08T09:49:21;12.55;;;6.97;;
49177;SDS011;35016;55.674;37.468;2023-08-08T09:51:49;11.88;;;8.52;;
49177;SDS011;35016;55.674;37.468;2023-08-08T09:54:17;11.20;;;7.85;;
49177;SDS011;35016;55.674;37.468;2023-08-08T09:56:44;11.95;;;6.43;;
49177;SDS011;35016;55.674;37.468;2023-08-08T09:59:11;13.43;;;6.93;;
49177;SDS011;35016;55.674;37.468;2023-08-08T10:01:40;10.95;;;7.35;;
49177;SDS011;35016;55.674;37.468;2023-08-08T10:04:08;15.82;;;8.07;;
49177;SDS011;35016;55.674;37.468;2023-08-08T10:06:35;10.27;;;7.07;;
49177;SDS011;35016;55.674;37.468;2023-08-08T10:09:02;12.10;;;8.25;;
49177;SDS011;35016;55.674;37.468;2023-08-08T10:11:30;11.82;;;6.95;;
49177;SDS011;35016;55.674;37.468;2023-08-08T10:14:01;14.00;;;7.97;;
49177;SDS011;35016;55.674;37.468;2023-08-08T10:16:31;12.57;;;7.05;;
49177;SDS011;35016;55.674;37.468;2023-08-08T10:19:00;11.05;;;7.57;;
49177;SDS011;35016;55.674;37.468;2023-08-08T10:21:36;10.80;;;6.95;;
49177;SDS011;35016;55.674;37.468;2023-08-08T10:24:09;10.95;;;7.30;;
49177;SDS011;35016;55.674;37.468;2023-08-08T10:29:24;11.60;;;7.95;;
49177;SDS011;35016;55.674;37.468;2023-08-08T10:32:00;13.50;;;8.40;;
49177;SDS011;35016;55.674;37.468;2023-08-08T10:34:36;12.00;;;7.63;;
49177;SDS011;35016;55.674;37.468;2023-08-08T10:39:50;10.05;;;7.15;;
49177;SDS011;35016;55.674;37.468;2023-08-08T10:42:19;12.18;;;7.07;;
49177;SDS011;35016;55.674;37.468;2023-08-08T10:44:56;11.40;;;7.70;;
49177;SDS011;35016;55.674;37.468;2023-08-08T10:47:25;11.13;;;7.88;;
49177;SDS011;35016;55.674;37.468;2023-08-08T10:49:58;10.63;;;7.78;;
49177;SDS011;35016;55.674;37.468;2023-08-08T10:58:10;10.15;;;7.30;;
49177;SDS011;35016;55.674;37.468;2023-08-08T11:00:42;16.10;;;7.65;;
49177;SDS011;35016;55.674;37.468;2023-08-08T11:03:10;12.10;;;7.03;;
49177;SDS011;35016;55.674;37.468;2023-08-08T11:05:37;13.93;;;7.55;;
49177;SDS011;35016;55.674;37.468;2023-08-08T11:08:05;14.63;;;7.97;;
49177;SDS011;35016;55.674;37.468;2023-08-08T11:10:39;15.77;;;8.82;;
49177;SDS011;35016;55.674;37.468;2023-08-08T11:13:08;13.43;;;9.05;;
49177;SDS011;35016;55.674;37.468;2023-08-08T11:15:37;11.52;;;7.32;;
49177;SDS011;35016;55.674;37.468;2023-08-08T11:18:05;11.05;;;8.23;;
49177;SDS011;35016;55.674;37.468;2023-08-08T11:20:33;13.38;;;8.48;;
49177;SDS011;35016;55.674;37.468;2023-08-08T11:23:02;12.32;;;8.85;;
49177;SDS011;35016;55.674;37.468;2023-08-08T11:25:32;12.80;;;9.40;;
49177;SDS011;35016;55.674;37.468;2023-08-08T11:27:59;10.77;;;7.53;;
49177;SDS011;35016;55.674;37.468;2023-08-08T11:30:30;10.50;;;7.35;;
49177;SDS011;35016;55.674;37.468;2023-08-08T11:33:00;11.77;;;7.78;;
49177;SDS011;35016;55.674;37.468;2023-08-08T11:35:31;15.02;;;7.30;;
49177;SDS011;35016;55.674;37.468;2023-08-08T11:37:58;12.32;;;7.20;;
49177;SDS011;35016;55.674;37.468;2023-08-08T11:40:27;13.50;;;10.10;;
49177;SDS011;35016;55.674;37.468;2023-08-08T11:42:55;10.30;;;7.70;;
49177;SDS011;35016;55.674;37.468;2023-08-08T11:45:23;16.55;;;8.82;;
49177;SDS011;35016;55.674;37.468;2023-08-08T11:47:55;17.38;;;9.52;;
49177;SDS011;35016;55.674;37.468;2023-08-08T11:50:23;12.00;;;9.75;;
49177;SDS011;35016;55.674;37.468;2023-08-08T11:52:52;14.65;;;8.85;;
49177;SDS011;35016;55.674;37.468;2023-08-08T11:55:21;13.73;;;8.68;;
49177;SDS011;35016;55.674;37.468;2023-08-08T11:57:57;12.77;;;8.88;;
49177;SDS011;35016;55.674;37.468;2023-08-08T12:00:27;11.68;;;7.43;;
49177;SDS011;35016;55.674;37.468;2023-08-08T12:03:00;10.95;;;6.97;;
49177;SDS011;35016;55.674;37.468;2023-08-08T12:05:28;12.48;;;7.70;;
49177;SDS011;35016;55.674;37.468;2023-08-08T12:07:57;12.52;;;9.07;;
49177;SDS011;35016;55.674;37.468;2023-08-08T12:10:25;13.60;;;7.47;;
49177;SDS011;35016;55.674;37.468;2023-08-08T12:12:53;12.45;;;8.10;;
49177;SDS011;35016;55.674;37.468;2023-08-08T12:15:22;13.02;;;6.53;;
49177;SDS011;35016;55.674;37.468;2023-08-08T12:17:49;11.35;;;8.35;;
49177;SDS011;35016;55.674;37.468;2023-08-08T12:20:16;12.18;;;8.38;;
49177;SDS011;35016;55.674;37.468;2023-08-08T12:22:43;10.60;;;7.82;;
49177;SDS011;35016;55.674;37.468;2023-08-08T12:25:11;13.02;;;8.88;;
49177;SDS011;35016;55.674;37.468;2023-08-08T12:27:38;9.98;;;7.32;;
49177;SDS011;35016;55.674;37.468;2023-08-08T12:30:06;11.68;;;7.88;;
49177;SDS011;35016;55.674;37.468;2023-08-08T12:32:34;12.18;;;8.05;;
49177;SDS011;35016;55.674;37.468;2023-08-08T12:35:01;9.73;;;7.40;;
49177;SDS011;35016;55.674;37.468;2023-08-08T12:37:29;13.10;;;8.73;;
49177;SDS011;35016;55.674;37.468;2023-08-08T12:39:56;12.07;;;9.60;;
49177;SDS011;35016;55.674;37.468;2023-08-08T12:42:23;12.35;;;8.07;;
49177;SDS011;35016;55.674;37.468;2023-08-08T12:44:53;14.18;;;8.80;;
49177;SDS011;35016;55.674;37.468;2023-08-08T12:47:20;15.60;;;8.65;;
49177;SDS011;35016;55.674;37.468;2023-08-08T12:49:48;11.90;;;8.43;;
49177;SDS011;35016;55.674;37.468;2023-08-08T12:52:15;12.95;;;8.63;;
49177;SDS011;35016;55.674;37.468;2023-08-08T12:54:42;12.48;;;8.27;;
49177;SDS011;35016;55.674;37.468;2023-08-08T12:57:10;11.77;;;7.75;;
49177;SDS011;35016;55.674;37.468;2023-08-08T12:59:37;11.95;;;7.82;;
49177;SDS011;35016;55.674;37.468;2023-08-08T13:02:04;11.88;;;7.47;;
49177;SDS011;35016;55.674;37.468;2023-08-08T13:04:31;12.43;;;7.00;;
49177;SDS011;35016;55.674;37.468;2023-08-08T13:06:58;10.43;;;7.60;;
49177;SDS011;35016;55.674;37.468;2023-08-08T13:09:25;11.32;;;6.90;;
49177;SDS011;35016;55.674;37.468;2023-08-08T13:11:52;11.07;;;7.97;;
49177;SDS011;35016;55.674;37.468;2023-08-08T13:14:20;10.75;;;7.40;;
49177;SDS011;35016;55.674;37.468;2023-08-08T13:16:47;10.90;;;7.10;;
49177;SDS011;35016;55.674;37.468;2023-08-08T13:19:14;15.55;;;8.70;;
49177;SDS011;35016;55.674;37.468;2023-08-08T13:21:43;11.63;;;7.75;;
49177;SDS011;35016;55.674;37.468;2023-08-08T13:24:10;11.55;;;8.32;;
49177;SDS011;35016;55.674;37.468;2023-08-08T13:26:39;10.95;;;8.40;;
49177;SDS011;35016;55.674;37.468;2023-08-08T13:29:07;10.50;;;8.68;;
49177;SDS011;35016;55.674;37.468;2023-08-08T13:31:34;13.27;;;8.48;;
49177;SDS011;35016;55.674;37.468;2023-08-08T13:34:02;10.75;;;8.13;;
49177;SDS011;35016;55.674;37.468;2023-08-08T13:36:31;12.63;;;9.18;;
49177;SDS011;35016;55.674;37.468;2023-08-08T13:38:58;11.65;;;9.38;;
49177;SDS011;35016;55.674;37.468;2023-08-08T13:41:26;12.43;;;8.80;;
49177;SDS011;35016;55.674;37.468;2023-08-08T13:43:53;22.77;;;8.98;;
49177;SDS011;35016;55.674;37.468;2023-08-08T13:46:20;11.60;;;7.82;;
49177;SDS011;35016;55.674;37.468;2023-08-08T13:48:47;11.80;;;8.38;;
49177;SDS011;35016;55.674;37.468;2023-08-08T13:51:15;9.88;;;7.18;;
49177;SDS011;35016;55.674;37.468;2023-08-08T13:53:42;12.82;;;8.95;;
49177;SDS011;35016;55.674;37.468;2023-08-08T13:56:09;12.80;;;9.52;;
49177;SDS011;35016;55.674;37.468;2023-08-08T13:58:37;16.75;;;9.52;;
49177;SDS011;35016;55.674;37.468;2023-08-08T14:01:04;16.50;;;9.50;;
49177;SDS011;35016;55.674;37.468;2023-08-08T14:03:31;11.27;;;8.73;;
49177;SDS011;35016;55.674;37.468;2023-08-08T14:05:58;12.23;;;8.93;;
49177;SDS011;35016;55.674;37.468;2023-08-08T14:08:26;13.02;;;9.85;;
49177;SDS011;35016;55.674;37.468;2023-08-08T14:10:53;16.38;;;10.07;;
49177;SDS011;35016;55.674;37.468;2023-08-08T14:13:20;11.50;;;9.00;;
49177;SDS011;35016;55.674;37.468;2023-08-08T14:15:48;16.00;;;8.18;;
49177;SDS011;35016;55.674;37.468;2023-08-08T14:18:15;14.90;;;8.57;;
49177;SDS011;35016;55.674;37.468;2023-08-08T14:20:42;14.55;;;9.63;;
49177;SDS011;35016;55.674;37.468;2023-08-08T14:23:09;13.10;;;10.20;;
49177;SDS011;35016;55.674;37.468;2023-08-08T14:25:36;14.93;;;9.02;;
49177;SDS011;35016;55.674;37.468;2023-08-08T14:28:03;15.60;;;9.38;;
49177;SDS011;35016;55.674;37.468;2023-08-08T14:30:33;11.68;;;8.38;;
49177;SDS011;35016;55.674;37.468;2023-08-08T14:33:00;13.10;;;9.90;;
49177;SDS011;35016;55.674;37.468;2023-08-08T14:35:27;12.38;;;9.48;;
49177;SDS011;35016;55.674;37.468;2023-08-08T14:37:55;13.00;;;9.80;;
49177;SDS011;35016;55.674;37.468;2023-08-08T14:40:21;11.68;;;8.43;;
49177;SDS011;35016;55.674;37.468;2023-08-08T14:42:49;16.80;;;10.45;;